createdAt,value
2022-12-23T00:01:51.216Z,95910.09
2022-12-23T00:04:17.920Z,95908.03
2022-12-23T00:06:44.610Z,95905.97
2022-12-23T00:09:11.020Z,95909.94
2022-12-23T00:11:57.512Z,95887.41
2022-12-23T00:14:42.631Z,95895.88
2022-12-23T00:17:22.309Z,95885.84
2022-12-23T00:19:49.379Z,95889.53
2022-12-23T00:22:15.785Z,95883.78
2022-12-23T00:24:42.363Z,95861.09
2022-12-23T00:27:08.896Z,95866.97
2022-12-23T00:29:35.409Z,95866.53
2022-12-23T00:32:02.302Z,95866.88
2022-12-23T00:34:28.960Z,95860.19
2022-12-23T00:36:55.504Z,95868.50
2022-12-23T00:39:40.823Z,95865.91
2022-12-23T00:42:27.660Z,95855.88
2022-12-23T00:45:14.127Z,95851.13
2022-12-23T00:47:58.989Z,95844.66
2022-12-23T00:50:25.610Z,95834.69
2022-12-23T00:52:52.140Z,95851.34
2022-12-23T00:55:18.752Z,95832.53
2022-12-23T00:57:45.308Z,95842.03
2022-12-23T01:00:12.454Z,95837.69
2022-12-23T01:02:57.607Z,95807.63
2022-12-23T01:05:39.281Z,95825.66
2022-12-23T01:08:08.798Z,95828.34
2022-12-23T01:10:37.238Z,95815.78
2022-12-23T01:13:03.784Z,95823.31
2022-12-23T01:15:30.311Z,95822.03
2022-12-23T01:17:56.912Z,95817.69
2022-12-23T01:20:23.797Z,95829.16
2022-12-23T01:22:50.763Z,95807.66
2022-12-23T01:25:17.648Z,95811.03
2022-12-23T01:27:44.122Z,95827.97
2022-12-23T01:30:10.669Z,95822.13
2022-12-23T01:32:37.196Z,95826.41
2022-12-23T01:35:03.746Z,95824.13
2022-12-23T01:37:30.221Z,95826.00
2022-12-23T01:39:56.620Z,95822.53
2022-12-23T01:42:41.748Z,95812.63
2022-12-23T01:45:15.318Z,95820.06
2022-12-23T01:47:54.022Z,95828.22
2022-12-23T01:50:29.521Z,95826.88
2022-12-23T01:53:14.876Z,95830.03
2022-12-23T01:56:07.041Z,95836.78
2022-12-23T01:58:37.763Z,95821.13
2022-12-23T02:01:24.731Z,95822.75
2022-12-23T02:03:56.048Z,95822.13
2022-12-23T02:06:47.858Z,95805.34
2022-12-23T02:09:36.513Z,95807.72
2022-12-23T02:12:26.028Z,95820.78
2022-12-23T02:15:50.678Z,95807.88
2022-12-23T02:18:37.061Z,95816.81
2022-12-23T02:21:18.757Z,95826.22
2022-12-23T02:23:58.543Z,95823.31
2022-12-23T02:26:24.984Z,95824.88
2022-12-23T02:29:09.703Z,95824.78
2022-12-23T02:32:14.790Z,95826.72
2022-12-23T02:35:13.553Z,95801.44
2022-12-23T02:37:55.527Z,95828.13
2022-12-23T02:40:38.652Z,95828.59
2022-12-23T02:43:17.252Z,95818.53
2022-12-23T02:45:52.302Z,95827.09
2022-12-23T02:48:23.494Z,95819.94
2022-12-23T02:50:53.524Z,95821.03
2022-12-23T02:53:37.364Z,95815.72
2022-12-23T02:56:07.537Z,95822.38
2022-12-23T02:58:41.412Z,95831.91
2022-12-23T03:01:10.442Z,95816.78
2022-12-23T03:03:38.698Z,95806.75
2022-12-23T03:06:29.065Z,95824.84
2022-12-23T03:08:58.201Z,95832.56
2022-12-23T03:11:49.321Z,95819.38
2022-12-23T03:14:36.428Z,95829.50
2022-12-23T03:17:25.586Z,95824.75
2022-12-23T03:20:21.057Z,95828.31
2022-12-23T03:22:57.233Z,95826.97
2022-12-23T03:25:33.912Z,95828.31
2022-12-23T03:28:16.032Z,95809.97
2022-12-23T03:30:47.340Z,95835.94
2022-12-23T03:33:22.205Z,95831.63
2022-12-23T03:35:55.925Z,95838.97
2022-12-23T03:38:23.341Z,95824.56
2022-12-23T03:40:55.892Z,95843.38
2022-12-23T03:43:27.061Z,95840.69
2022-12-23T03:46:08.899Z,95842.41
2022-12-23T03:48:42.676Z,95841.44
2022-12-23T03:51:23.535Z,95839.78
2022-12-23T03:53:54.688Z,95849.44
2022-12-23T03:56:43.046Z,95839.53
2022-12-23T03:59:21.424Z,95861.81
2022-12-23T04:02:15.377Z,95861.38
2022-12-23T04:05:03.566Z,95864.72
2022-12-23T04:07:50.405Z,95862.56
2022-12-23T04:10:17.207Z,95860.88
2022-12-23T04:12:44.350Z,95856.50
2022-12-23T04:15:13.327Z,95866.41
2022-12-23T04:17:40.337Z,95852.09
2022-12-23T04:20:07.632Z,95856.44
2022-12-23T04:22:34.157Z,95869.28
2022-12-23T04:25:00.611Z,95873.41
2022-12-23T04:27:27.461Z,95875.22
2022-12-23T04:29:53.989Z,95873.88
2022-12-23T04:32:20.438Z,95880.28
2022-12-23T04:34:46.972Z,95887.88
2022-12-23T04:37:13.425Z,95883.44
2022-12-23T04:39:39.937Z,95893.19
2022-12-23T04:42:06.409Z,95889.78
2022-12-23T04:44:32.959Z,95885.03
2022-12-23T04:46:59.481Z,95885.41
2022-12-23T04:49:26.104Z,95890.16
2022-12-23T04:51:52.539Z,95884.28
2022-12-23T04:54:19.119Z,95883.69
2022-12-23T04:56:45.612Z,95891.53
2022-12-23T04:59:12.110Z,95896.47
2022-12-23T05:01:38.850Z,95895.38
2022-12-23T05:04:05.524Z,95889.34
2022-12-23T05:06:32.071Z,95895.97
2022-12-23T05:08:58.575Z,95891.38
2022-12-23T05:11:25.027Z,95892.50
2022-12-23T05:13:51.539Z,95905.91
2022-12-23T05:16:18.032Z,95906.50
2022-12-23T05:18:44.669Z,95912.25
2022-12-23T05:21:11.148Z,95918.91
2022-12-23T05:23:37.908Z,95911.91
2022-12-23T05:26:04.620Z,95924.47
2022-12-23T05:28:31.465Z,95923.78
2022-12-23T05:31:03.515Z,95920.78
2022-12-23T05:33:30.961Z,95923.88
2022-12-23T05:35:57.802Z,95924.03
2022-12-23T05:38:24.727Z,95918.53
2022-12-23T05:40:51.372Z,95919.53
2022-12-23T05:43:18.155Z,95917.09
2022-12-23T05:45:45.106Z,95919.41
2022-12-23T05:48:11.785Z,95916.78
2022-12-23T05:50:39.621Z,95908.09
2022-12-23T05:53:06.987Z,95922.44
2022-12-23T05:55:34.057Z,95935.22
2022-12-23T05:58:00.595Z,95927.75
2022-12-23T06:00:27.341Z,95933.91
2022-12-23T06:02:54.595Z,95920.97
2022-12-23T06:05:22.016Z,95939.06
2022-12-23T06:07:48.845Z,95936.44
2022-12-23T06:10:15.419Z,95935.03
2022-12-23T06:12:41.984Z,95957.59
2022-12-23T06:15:08.600Z,95962.84
2022-12-23T06:17:35.170Z,95980.31
2022-12-23T06:20:02.896Z,95983.38
2022-12-23T06:22:29.563Z,95979.34
2022-12-23T06:24:59.310Z,95974.41
2022-12-23T06:27:25.840Z,95966.38
2022-12-23T06:29:53.430Z,95984.38
2022-12-23T06:32:19.976Z,95969.84
2022-12-23T06:34:46.746Z,95980.94
2022-12-23T06:37:13.312Z,95975.13
2022-12-23T06:39:39.845Z,95982.09
2022-12-23T06:42:06.404Z,95986.47
2022-12-23T06:44:32.903Z,95988.38
2022-12-23T06:46:59.329Z,95989.06
2022-12-23T06:49:26.242Z,95994.69
2022-12-23T06:51:52.823Z,95967.47
2022-12-23T06:54:19.233Z,95994.25
2022-12-23T06:56:45.747Z,96003.13
2022-12-23T06:59:12.219Z,96012.09
2022-12-23T07:01:38.924Z,96013.00
2022-12-23T07:04:05.575Z,96009.50
2022-12-23T07:06:32.005Z,96017.75
2022-12-23T07:08:58.690Z,96023.34
2022-12-23T07:11:25.202Z,96015.44
2022-12-23T07:13:51.658Z,96034.63
2022-12-23T07:16:18.239Z,96029.03
2022-12-23T07:18:45.001Z,96045.00
2022-12-23T07:21:21.207Z,96049.09
2022-12-23T07:23:53.232Z,96046.84
2022-12-23T07:26:19.771Z,96044.31
2022-12-23T07:28:48.189Z,96061.78
2022-12-23T07:31:15.445Z,96064.44
2022-12-23T07:33:42.316Z,96065.03
2022-12-23T07:36:09.137Z,96050.31
2022-12-23T07:38:35.816Z,96066.50
2022-12-23T07:41:02.296Z,96067.47
2022-12-23T07:43:28.913Z,96073.97
2022-12-23T07:46:00.038Z,96068.00
2022-12-23T07:48:27.580Z,96045.09
2022-12-23T07:51:00.385Z,96072.22
2022-12-23T07:53:27.389Z,96058.06
2022-12-23T07:55:56.576Z,96064.03
2022-12-23T07:58:24.045Z,96074.09
2022-12-23T08:00:50.739Z,96074.41
2022-12-23T08:03:17.523Z,96075.22
2022-12-23T08:05:44.325Z,96066.16
2022-12-23T08:08:10.800Z,96070.09
2022-12-23T08:10:41.421Z,96066.94
2022-12-23T08:13:11.242Z,96065.66
2022-12-23T08:15:37.704Z,96058.13
2022-12-23T08:18:04.154Z,96052.66
2022-12-23T08:20:30.735Z,96042.59
2022-12-23T08:22:57.227Z,96054.31
2022-12-23T08:25:23.889Z,96034.81
2022-12-23T08:27:51.267Z,96054.69
2022-12-23T08:30:18.863Z,96055.00
2022-12-23T08:32:45.423Z,96056.53
2022-12-23T08:35:12.002Z,96059.41
2022-12-23T08:37:38.459Z,96071.50
2022-12-23T08:40:05.565Z,96054.72
2022-12-23T08:42:32.145Z,96086.91
2022-12-23T08:44:58.775Z,96067.56
2022-12-23T08:47:25.295Z,96103.38
2022-12-23T08:49:51.728Z,96103.00
2022-12-23T08:52:18.255Z,96084.16
2022-12-23T08:54:44.704Z,96114.13
2022-12-23T08:57:11.292Z,96108.25
2022-12-23T08:59:37.802Z,96121.72
2022-12-23T09:02:04.469Z,96121.97
2022-12-23T09:04:31.032Z,96097.31
2022-12-23T09:06:57.507Z,96119.09
2022-12-23T09:09:23.973Z,96102.69
2022-12-23T09:11:50.450Z,96121.44
2022-12-23T09:14:17.238Z,96123.25
2022-12-23T09:16:45.276Z,96123.56
2022-12-23T09:19:12.781Z,96118.09
2022-12-23T09:21:39.261Z,96125.19
2022-12-23T09:24:06.211Z,96109.00
2022-12-23T09:26:33.065Z,96109.56
2022-12-23T09:29:00.483Z,96113.06
2022-12-23T09:31:34.107Z,96111.50
2022-12-23T09:34:03.317Z,96112.31
2022-12-23T09:36:30.114Z,96108.19
2022-12-23T09:38:58.042Z,96093.91
2022-12-23T09:41:53.844Z,96109.75
2022-12-23T09:44:49.151Z,96106.81
2022-12-23T09:47:21.870Z,96111.56
2022-12-23T09:50:18.138Z,96110.59
2022-12-23T09:52:59.109Z,96107.75
2022-12-23T09:55:34.249Z,96100.91
2022-12-23T09:58:06.532Z,96100.88
2022-12-23T10:00:44.390Z,96090.44
2022-12-23T10:03:40.938Z,96091.13
2022-12-23T10:06:15.536Z,96091.41
2022-12-23T10:08:46.679Z,96084.63
2022-12-23T10:11:17.441Z,96089.38
2022-12-23T10:13:51.413Z,96090.97
2022-12-23T10:16:29.519Z,96084.00
2022-12-23T10:19:23.751Z,96082.84
2022-12-23T10:21:52.405Z,96082.72
2022-12-23T10:24:21.666Z,96076.34
2022-12-23T10:27:05.990Z,96089.25
2022-12-23T10:29:34.028Z,96091.03
2022-12-23T10:32:06.663Z,96094.94
2022-12-23T10:34:51.883Z,96088.34
2022-12-23T10:37:46.631Z,96076.53
2022-12-23T10:40:22.163Z,96082.09
2022-12-23T10:43:01.290Z,96078.72
2022-12-23T10:45:43.224Z,96070.84
2022-12-23T10:48:40.631Z,96075.09
2022-12-23T10:51:34.584Z,96072.72
2022-12-23T10:54:15.597Z,96065.97
2022-12-23T10:56:43.656Z,96053.13
2022-12-23T10:59:15.570Z,96062.16
2022-12-23T11:01:47.623Z,96062.41
2022-12-23T11:04:25.851Z,96042.63
2022-12-23T11:07:18.271Z,96054.56
2022-12-23T11:10:32.835Z,96058.09
2022-12-23T11:13:00.643Z,96053.09
2022-12-23T11:32:51.513Z,96041.94
2022-12-23T11:35:27.547Z,96040.22
2022-12-23T11:37:54.850Z,96038.94
2022-12-23T11:40:26.550Z,96030.13
2022-12-23T11:43:03.113Z,96029.91
2022-12-23T11:45:34.297Z,96035.13
2022-12-23T11:48:00.895Z,96027.81
2022-12-23T11:50:29.551Z,96029.34
2022-12-23T11:53:04.684Z,96017.09
2022-12-23T11:55:32.912Z,96008.44
2022-12-23T11:58:02.416Z,96016.88
2022-12-23T12:00:42.783Z,95990.88
2022-12-23T12:03:18.879Z,96013.41
2022-12-23T12:06:13.985Z,96012.44
2022-12-23T12:08:41.565Z,96005.38
2022-12-23T12:11:15.570Z,95997.81
2022-12-23T12:13:45.028Z,96005.16
2022-12-23T12:16:35.434Z,96003.31
2022-12-23T12:19:11.406Z,95991.72
2022-12-23T12:21:38.909Z,95989.13
2022-12-23T12:24:27.514Z,95962.31
2022-12-23T12:27:01.106Z,95963.88
2022-12-23T12:29:54.614Z,95971.28
2022-12-23T12:32:53.333Z,95978.38
2022-12-23T12:35:31.778Z,95973.09
2022-12-23T12:38:10.671Z,95971.75
2022-12-23T12:40:49.554Z,95968.34
2022-12-23T12:43:31.962Z,95957.63
2022-12-23T12:46:08.597Z,95952.38
2022-12-23T12:48:44.996Z,95944.19
2022-12-23T12:51:28.246Z,95956.56
2022-12-23T12:54:04.445Z,95948.16
2022-12-23T12:56:49.392Z,95938.41
2022-12-23T12:59:18.791Z,95938.47
2022-12-23T13:01:59.259Z,95933.50
2022-12-23T13:04:42.175Z,95932.19
2022-12-23T13:07:26.430Z,95912.69
2022-12-23T13:10:10.973Z,95931.66
2022-12-23T13:12:59.177Z,95916.66
2022-12-23T13:15:39.102Z,95913.50
2022-12-23T13:18:35.350Z,95902.41
2022-12-23T13:21:07.552Z,95900.06
2022-12-23T13:23:59.261Z,95890.88
2022-12-23T13:26:37.959Z,95899.78
2022-12-23T13:29:42.233Z,95889.81
2022-12-23T13:32:41.565Z,95890.56
2022-12-23T13:35:27.096Z,95887.97
2022-12-23T13:38:06.348Z,95880.81
2022-12-23T13:40:54.966Z,95884.72
2022-12-23T13:43:26.099Z,95890.78
2022-12-23T13:45:54.414Z,95886.06
2022-12-23T13:48:45.289Z,95881.91
2022-12-23T13:51:25.900Z,95886.88
2022-12-23T13:54:15.562Z,95883.22
2022-12-23T13:57:14.673Z,95875.13
2022-12-23T13:59:43.564Z,95849.59
2022-12-23T14:02:38.056Z,95861.19
2022-12-23T14:05:23.742Z,95862.75
2022-12-23T14:07:50.575Z,95863.31
2022-12-23T14:10:22.754Z,95865.91
2022-12-23T14:12:51.847Z,95865.66
2022-12-23T14:15:44.236Z,95860.41
2022-12-23T14:18:25.387Z,95853.34
2022-12-23T14:21:15.567Z,95844.91
2022-12-23T14:24:11.580Z,95819.41
2022-12-23T14:26:57.764Z,95830.47
2022-12-23T14:29:52.158Z,95841.81
2022-12-23T14:32:23.892Z,95832.59
2022-12-23T14:35:18.494Z,95833.16
2022-12-23T14:38:14.223Z,95836.81
2022-12-23T14:40:43.722Z,95832.09
2022-12-23T14:43:22.965Z,95829.47
2022-12-23T14:45:50.770Z,95823.19
2022-12-23T14:48:41.588Z,95821.34
2022-12-23T14:51:08.078Z,95822.09
2022-12-23T14:53:35.861Z,95817.13
2022-12-23T14:56:08.168Z,95813.72
2022-12-23T14:58:49.410Z,95760.41
2022-12-23T15:01:19.300Z,95804.09
2022-12-23T15:03:56.054Z,95811.94
2022-12-23T15:06:33.585Z,95804.59
2022-12-23T15:09:02.648Z,95801.97
2022-12-23T15:11:31.571Z,95805.94
2022-12-23T15:14:02.573Z,95804.31
2022-12-23T15:16:39.663Z,95802.22
2022-12-23T15:19:19.415Z,95801.13
2022-12-23T15:21:50.373Z,95799.59
2022-12-23T15:24:22.658Z,95776.47
2022-12-23T15:27:17.505Z,95795.13
2022-12-23T15:29:50.455Z,95787.78
2022-12-23T15:32:18.370Z,95779.13
2022-12-23T15:34:48.069Z,95779.91
2022-12-23T15:37:22.335Z,95782.53
2022-12-23T15:39:54.140Z,95778.38
2022-12-23T15:42:34.081Z,95787.78
2022-12-23T15:45:00.987Z,95785.44
2022-12-23T15:47:36.670Z,95789.38
2022-12-23T15:50:04.516Z,95781.81
2022-12-23T15:52:32.746Z,95789.69
2022-12-23T15:55:12.555Z,95791.28
2022-12-23T15:57:50.342Z,95778.91
2022-12-23T16:00:23.564Z,95776.06
2022-12-23T16:03:01.507Z,95755.31
2022-12-23T16:05:38.035Z,95770.78
2022-12-23T16:08:12.119Z,95770.28
2022-12-23T16:10:39.417Z,95769.53
2022-12-23T16:13:17.560Z,95755.59
2022-12-23T16:15:44.705Z,95756.66
2022-12-23T16:18:20.215Z,95770.13
2022-12-23T16:21:04.061Z,95763.75
2022-12-23T16:23:37.192Z,95753.78
2022-12-23T16:26:03.889Z,95761.13
2022-12-23T16:28:40.969Z,95740.16
2022-12-23T16:31:10.562Z,95751.97
2022-12-23T16:33:55.946Z,95759.56
2022-12-23T16:36:34.739Z,95761.41
2022-12-23T16:39:07.253Z,95766.91
2022-12-23T16:41:35.038Z,95757.44
2022-12-23T16:44:01.864Z,95760.06
2022-12-23T16:46:34.071Z,95758.75
2022-12-23T16:49:04.757Z,95761.44
2022-12-23T16:51:34.155Z,95732.25
2022-12-23T16:54:02.566Z,95743.03
2022-12-23T16:56:37.410Z,95759.56
2022-12-23T16:59:04.655Z,95766.97
2022-12-23T17:01:35.169Z,95769.06
2022-12-23T17:04:02.341Z,95753.06
2022-12-23T17:06:28.877Z,95749.34
2022-12-23T17:08:56.736Z,95760.94
2022-12-23T17:11:36.761Z,95724.69
2022-12-23T17:14:09.081Z,95749.63
2022-12-23T17:16:38.564Z,95743.59
2022-12-23T17:19:05.731Z,95757.53
2022-12-23T17:21:37.301Z,95757.25
2022-12-23T17:24:20.654Z,95751.44
2022-12-23T17:26:47.406Z,95752.00
2022-12-23T17:29:14.841Z,95733.09
2022-12-23T17:31:43.088Z,95734.66
2022-12-23T17:34:15.678Z,95764.88
2022-12-23T17:36:49.175Z,95758.81
2022-12-23T17:39:16.795Z,95768.81
2022-12-23T17:41:43.220Z,95771.69
2022-12-23T17:44:13.931Z,95758.03
2022-12-23T17:46:40.835Z,95771.69
2022-12-23T17:49:09.830Z,95770.38
2022-12-23T17:51:39.663Z,95763.81
2022-12-23T17:54:06.641Z,95776.69
2022-12-23T17:56:33.417Z,95756.97
2022-12-23T17:58:59.963Z,95765.41
2022-12-23T18:01:29.815Z,95775.13
2022-12-23T18:03:58.211Z,95758.03
2022-12-23T18:06:26.663Z,95770.38
2022-12-23T18:08:53.241Z,95771.44
2022-12-23T18:11:38.563Z,95781.94
2022-12-23T18:14:05.044Z,95776.41
2022-12-23T18:16:31.646Z,95784.28
2022-12-23T18:18:58.188Z,95739.31
2022-12-23T18:21:26.194Z,95795.59
2022-12-23T18:23:54.992Z,95766.13
2022-12-23T18:26:21.495Z,95768.03
2022-12-23T18:28:47.961Z,95783.53
2022-12-23T18:31:19.838Z,95769.31
2022-12-23T18:33:47.280Z,95750.38
2022-12-23T18:36:27.045Z,95764.34
2022-12-23T18:38:53.852Z,95777.22
2022-12-23T18:41:21.617Z,95718.09
2022-12-23T18:43:48.133Z,95758.53
2022-12-23T18:46:14.583Z,95779.28
2022-12-23T18:48:41.115Z,95785.38
2022-12-23T18:51:07.554Z,95785.88
2022-12-23T18:53:34.002Z,95771.94
2022-12-23T18:56:02.012Z,95724.94
2022-12-23T18:58:28.485Z,95754.38
2022-12-23T19:00:55.043Z,95797.72
2022-12-23T19:03:31.561Z,95767.50
2022-12-23T19:06:06.315Z,95802.19
2022-12-23T19:08:35.233Z,95756.72
2022-12-23T19:11:02.570Z,95809.00
2022-12-23T19:13:29.475Z,95814.25
2022-12-23T19:15:56.157Z,95798.22
2022-12-23T19:18:22.714Z,95815.06
2022-12-23T19:20:49.702Z,95801.91
2022-12-23T19:23:17.186Z,95787.19
2022-12-23T19:25:52.759Z,95826.59
2022-12-23T19:28:21.776Z,95798.22
2022-12-23T19:30:48.619Z,95807.69
2022-12-23T19:33:15.142Z,95772.75
2022-12-23T19:35:42.255Z,95749.63
2022-12-23T19:38:08.706Z,95761.44
2022-12-23T19:40:35.295Z,95778.53
2022-12-23T19:43:02.288Z,95829.75
2022-12-23T19:45:28.785Z,95830.78
2022-12-23T19:47:55.195Z,95832.38
2022-12-23T19:50:22.222Z,95826.31
2022-12-23T19:52:50.106Z,95800.84
2022-12-23T19:55:16.656Z,95822.06
2022-12-23T19:57:43.216Z,95840.25
2022-12-23T20:00:10.182Z,95801.63
2022-12-23T20:02:39.411Z,95781.88
2022-12-23T20:05:06.263Z,95829.47
2022-12-23T20:07:35.204Z,95858.13
2022-12-23T20:10:03.269Z,95832.66
2022-12-23T20:12:29.845Z,95840.50
2022-12-23T20:14:56.228Z,95860.22
2022-12-23T20:17:22.732Z,95853.88
2022-12-23T20:19:49.119Z,95865.72
2022-12-23T20:22:15.613Z,95847.22
2022-12-23T20:24:41.997Z,95869.13
2022-12-23T20:27:11.722Z,95873.16
2022-12-23T20:29:39.140Z,95863.22
2022-12-23T20:32:05.679Z,95892.22
2022-12-23T20:34:38.742Z,95880.41
2022-12-23T20:37:06.459Z,95891.72
2022-12-23T20:39:33.205Z,95898.00
2022-12-23T20:41:59.698Z,95843.78
2022-12-23T20:44:35.505Z,95880.34
2022-12-23T20:47:07.649Z,95873.75
2022-12-23T20:49:34.984Z,95829.91
2022-12-23T20:52:02.812Z,95888.19
2022-12-23T20:54:33.092Z,95898.78
2022-12-23T20:57:01.847Z,95890.16
2022-12-23T20:59:28.718Z,95877.59
2022-12-23T21:01:55.380Z,95857.00
2022-12-23T21:04:22.644Z,95851.38
2022-12-23T21:06:49.392Z,95870.34
2022-12-23T21:09:15.889Z,95896.06
2022-12-23T21:11:45.217Z,95897.22
2022-12-23T21:14:12.644Z,95882.28
2022-12-23T21:16:40.392Z,95907.22
2022-12-23T21:19:09.153Z,95928.38
2022-12-23T21:21:35.868Z,95918.28
2022-12-23T21:24:04.493Z,95927.75
2022-12-23T21:26:32.675Z,95919.91
2022-12-23T21:29:00.472Z,95927.03
2022-12-23T21:31:28.870Z,95933.31
2022-12-23T21:33:56.257Z,95929.16
2022-12-23T21:36:25.918Z,95938.94
2022-12-23T21:38:52.785Z,95920.41
2022-12-23T21:41:22.467Z,95948.28
2022-12-23T21:43:49.707Z,95969.78
2022-12-23T21:46:18.989Z,95986.50
2022-12-23T21:48:46.164Z,95992.16
2022-12-23T21:51:20.990Z,95989.25
2022-12-23T21:53:50.445Z,95972.84
2022-12-23T21:56:19.662Z,95940.22
2022-12-23T21:58:46.996Z,95973.09
2022-12-23T22:01:16.955Z,95993.16
2022-12-23T22:03:44.926Z,95975.47
2022-12-23T22:06:25.295Z,96020.06
2022-12-23T22:08:53.243Z,96025.78
2022-12-23T22:11:27.827Z,96019.31
2022-12-23T22:13:56.589Z,96006.47
2022-12-23T22:16:26.234Z,96020.59
2022-12-23T22:18:53.371Z,96016.81
2022-12-23T22:21:22.025Z,96027.63
2022-12-23T22:23:50.401Z,96004.38
2022-12-23T22:26:24.567Z,96045.13
2022-12-23T22:28:52.503Z,96004.38
2022-12-23T22:31:31.191Z,96046.34
2022-12-23T22:33:57.920Z,96012.81
2022-12-23T22:36:24.714Z,96039.78
2022-12-23T22:38:56.331Z,96028.69
2022-12-23T22:41:24.394Z,96030.09
2022-12-23T22:43:51.370Z,96050.00
2022-12-23T22:46:18.436Z,96030.94
2022-12-23T22:48:45.287Z,96046.63
2022-12-23T22:51:14.087Z,96075.16
2022-12-23T22:53:40.898Z,96070.13
2022-12-23T22:56:08.079Z,96068.03
2022-12-23T22:58:34.871Z,96048.13
2022-12-23T23:17:51.558Z,96065.44
2022-12-23T23:20:18.160Z,96077.34
2022-12-23T23:22:44.740Z,96080.66
2022-12-23T23:25:11.321Z,96085.66
2022-12-23T23:27:37.789Z,96079.41
2022-12-23T23:30:04.697Z,96089.22
2022-12-23T23:32:31.275Z,96104.28
2022-12-23T23:34:57.848Z,96109.47
2022-12-23T23:37:24.315Z,96107.25
2022-12-23T23:39:51.517Z,96122.78
2022-12-23T23:42:18.245Z,96143.84
2022-12-23T23:44:44.791Z,96141.50
2022-12-23T23:47:11.199Z,96179.09
2022-12-23T23:49:37.696Z,96190.13
2022-12-23T23:52:04.245Z,96174.31
2022-12-23T23:54:30.751Z,96179.50
2022-12-23T23:56:57.184Z,96177.06
2022-12-23T23:59:23.727Z,96176.88
